Cash, Arkansas
Current Conditions -  °F | °C
As of 9:53 AM on Thursday 29 Jan 2015 (Local Time) from KJBR Reporting Station
Clear Clear  
Wind Chill: 57°   Ceiling: Unl
Heat Index: 57°   Visibility: 10mi
Dew Point: 41°   Wind: 14mph
Humidity: 55%   Direction: 310°NW
Pressure: 30.09"   Gusts: 18mph
Location:  35.79°N, 90.94°W
Report Text: KJBR 291553Z AUTO 31012G16KT 10SM CLR 14/05 A3009 RMK AO2 SLP187 T01390050
Loading
Personal Weather Stations






























Interactive Weather Map New forecast layout! Learn more

10-Day Weather Forecast

Advertisements
Track Severe Weather on mobile